sensor_id;sensor_type;location;lat;lon;timestamp;P1;durP1;ratioP1;P2;durP2;ratioP2
5904;SDS011;2978;42.012;24.880;2023-03-24T00:00:06;8.43;;;6.47;;
5904;SDS011;2978;42.012;24.880;2023-03-24T00:02:35;8.03;;;6.80;;
5904;SDS011;2978;42.012;24.880;2023-03-24T00:05:07;7.70;;;6.63;;
5904;SDS011;2978;42.012;24.880;2023-03-24T00:07:36;7.50;;;4.97;;
5904;SDS011;2978;42.012;24.880;2023-03-24T00:10:12;6.07;;;4.93;;
5904;SDS011;2978;42.012;24.880;2023-03-24T00:12:42;5.03;;;4.53;;
5904;SDS011;2978;42.012;24.880;2023-03-24T00:15:20;8.00;;;5.13;;
5904;SDS011;2978;42.012;24.880;2023-03-24T00:17:46;5.77;;;4.93;;
5904;SDS011;2978;42.012;24.880;2023-03-24T00:20:14;5.33;;;4.20;;
5904;SDS011;2978;42.012;24.880;2023-03-24T00:22:44;6.23;;;4.70;;
5904;SDS011;2978;42.012;24.880;2023-03-24T00:25:15;5.47;;;4.93;;
5904;SDS011;2978;42.012;24.880;2023-03-24T00:27:42;6.27;;;4.27;;
5904;SDS011;2978;42.012;24.880;2023-03-24T00:30:09;5.67;;;4.10;;
5904;SDS011;2978;42.012;24.880;2023-03-24T00:32:36;6.50;;;4.80;;
5904;SDS011;2978;42.012;24.880;2023-03-24T00:35:06;6.87;;;4.67;;
5904;SDS011;2978;42.012;24.880;2023-03-24T00:37:33;6.03;;;4.93;;
5904;SDS011;2978;42.012;24.880;2023-03-24T00:40:03;6.60;;;4.67;;
5904;SDS011;2978;42.012;24.880;2023-03-24T00:42:32;6.53;;;4.53;;
5904;SDS011;2978;42.012;24.880;2023-03-24T00:45:04;6.10;;;5.10;;
5904;SDS011;2978;42.012;24.880;2023-03-24T00:47:31;5.10;;;4.60;;
5904;SDS011;2978;42.012;24.880;2023-03-24T00:50:00;6.03;;;4.43;;
5904;SDS011;2978;42.012;24.880;2023-03-24T00:52:30;6.40;;;4.30;;
5904;SDS011;2978;42.012;24.880;2023-03-24T00:54:58;5.30;;;4.57;;
5904;SDS011;2978;42.012;24.880;2023-03-24T00:57:26;6.43;;;5.50;;
5904;SDS011;2978;42.012;24.880;2023-03-24T00:59:54;11.30;;;9.23;;
5904;SDS011;2978;42.012;24.880;2023-03-24T01:02:21;7.63;;;6.30;;
5904;SDS011;2978;42.012;24.880;2023-03-24T01:04:52;8.57;;;4.60;;
5904;SDS011;2978;42.012;24.880;2023-03-24T01:07:20;5.13;;;4.60;;
5904;SDS011;2978;42.012;24.880;2023-03-24T01:09:47;5.17;;;4.60;;
5904;SDS011;2978;42.012;24.880;2023-03-24T01:12:31;6.00;;;4.83;;
5904;SDS011;2978;42.012;24.880;2023-03-24T01:15:01;5.87;;;4.70;;
5904;SDS011;2978;42.012;24.880;2023-03-24T01:17:29;4.50;;;4.10;;
5904;SDS011;2978;42.012;24.880;2023-03-24T01:19:56;10.30;;;4.80;;
5904;SDS011;2978;42.012;24.880;2023-03-24T01:22:21;7.60;;;5.00;;
5904;SDS011;2978;42.012;24.880;2023-03-24T01:24:52;5.13;;;4.43;;
5904;SDS011;2978;42.012;24.880;2023-03-24T01:27:18;4.93;;;3.93;;
5904;SDS011;2978;42.012;24.880;2023-03-24T01:29:43;5.07;;;4.47;;
5904;SDS011;2978;42.012;24.880;2023-03-24T01:32:09;6.80;;;4.33;;
5904;SDS011;2978;42.012;24.880;2023-03-24T01:34:35;5.33;;;4.27;;
5904;SDS011;2978;42.012;24.880;2023-03-24T01:37:00;6.40;;;4.83;;
5904;SDS011;2978;42.012;24.880;2023-03-24T01:39:26;6.73;;;4.20;;
5904;SDS011;2978;42.012;24.880;2023-03-24T01:41:52;7.80;;;3.97;;
5904;SDS011;2978;42.012;24.880;2023-03-24T01:44:24;4.53;;;3.93;;
5904;SDS011;2978;42.012;24.880;2023-03-24T01:46:56;6.50;;;4.20;;
5904;SDS011;2978;42.012;24.880;2023-03-24T01:49:23;6.10;;;3.80;;
5904;SDS011;2978;42.012;24.880;2023-03-24T01:51:53;5.30;;;3.87;;
5904;SDS011;2978;42.012;24.880;2023-03-24T01:54:25;4.60;;;4.10;;
5904;SDS011;2978;42.012;24.880;2023-03-24T01:56:59;5.37;;;3.97;;
5904;SDS011;2978;42.012;24.880;2023-03-24T01:59:31;6.03;;;4.80;;
5904;SDS011;2978;42.012;24.880;2023-03-24T02:02:00;4.27;;;3.87;;
5904;SDS011;2978;42.012;24.880;2023-03-24T02:04:30;5.50;;;3.93;;
5904;SDS011;2978;42.012;24.880;2023-03-24T02:07:01;5.50;;;4.47;;
5904;SDS011;2978;42.012;24.880;2023-03-24T02:09:34;6.70;;;4.43;;
5904;SDS011;2978;42.012;24.880;2023-03-24T02:12:00;9.80;;;4.27;;
5904;SDS011;2978;42.012;24.880;2023-03-24T02:14:27;7.20;;;3.70;;
5904;SDS011;2978;42.012;24.880;2023-03-24T02:25:59;9.20;;;4.33;;
5904;SDS011;2978;42.012;24.880;2023-03-24T02:45:01;4.77;;;3.57;;
5904;SDS011;2978;42.012;24.880;2023-03-24T02:50:52;6.07;;;4.03;;
5904;SDS011;2978;42.012;24.880;2023-03-24T02:53:22;4.60;;;3.73;;
5904;SDS011;2978;42.012;24.880;2023-03-24T02:58:41;4.67;;;4.10;;
5904;SDS011;2978;42.012;24.880;2023-03-24T03:01:26;5.27;;;4.20;;
5904;SDS011;2978;42.012;24.880;2023-03-24T03:03:58;5.83;;;4.33;;
5904;SDS011;2978;42.012;24.880;2023-03-24T03:06:37;4.80;;;3.77;;
5904;SDS011;2978;42.012;24.880;2023-03-24T03:09:11;4.63;;;3.80;;
5904;SDS011;2978;42.012;24.880;2023-03-24T03:11:41;3.87;;;3.50;;
5904;SDS011;2978;42.012;24.880;2023-03-24T03:14:13;5.20;;;4.70;;
5904;SDS011;2978;42.012;24.880;2023-03-24T03:16:45;5.20;;;4.70;;
5904;SDS011;2978;42.012;24.880;2023-03-24T03:19:21;4.80;;;3.93;;
5904;SDS011;2978;42.012;24.880;2023-03-24T03:21:52;4.97;;;4.53;;
5904;SDS011;2978;42.012;24.880;2023-03-24T03:24:21;5.43;;;4.23;;
5904;SDS011;2978;42.012;24.880;2023-03-24T03:26:56;4.97;;;4.10;;
5904;SDS011;2978;42.012;24.880;2023-03-24T03:29:28;7.20;;;4.40;;
5904;SDS011;2978;42.012;24.880;2023-03-24T03:31:59;7.10;;;4.30;;
5904;SDS011;2978;42.012;24.880;2023-03-24T03:34:42;3.87;;;3.50;;
5904;SDS011;2978;42.012;24.880;2023-03-24T03:39:45;9.50;;;4.03;;
5904;SDS011;2978;42.012;24.880;2023-03-24T03:42:15;6.03;;;3.90;;
5904;SDS011;2978;42.012;24.880;2023-03-24T03:44:40;4.90;;;4.10;;
5904;SDS011;2978;42.012;24.880;2023-03-24T03:47:06;5.17;;;4.10;;
5904;SDS011;2978;42.012;24.880;2023-03-24T03:49:31;5.00;;;4.00;;
5904;SDS011;2978;42.012;24.880;2023-03-24T03:51:57;7.33;;;3.43;;
5904;SDS011;2978;42.012;24.880;2023-03-24T03:54:23;6.20;;;3.70;;
5904;SDS011;2978;42.012;24.880;2023-03-24T03:56:52;5.30;;;4.23;;
5904;SDS011;2978;42.012;24.880;2023-03-24T03:59:28;5.27;;;4.30;;
5904;SDS011;2978;42.012;24.880;2023-03-24T04:02:22;4.97;;;4.43;;
5904;SDS011;2978;42.012;24.880;2023-03-24T04:13:53;7.57;;;4.23;;
5904;SDS011;2978;42.012;24.880;2023-03-24T04:16:24;10.10;;;4.30;;
5904;SDS011;2978;42.012;24.880;2023-03-24T04:27:24;4.10;;;3.33;;
5904;SDS011;2978;42.012;24.880;2023-03-24T04:30:11;4.20;;;3.23;;
5904;SDS011;2978;42.012;24.880;2023-03-24T04:32:50;9.30;;;3.80;;
5904;SDS011;2978;42.012;24.880;2023-03-24T04:37:59;12.43;;;5.30;;
5904;SDS011;2978;42.012;24.880;2023-03-24T04:40:29;5.80;;;4.63;;
5904;SDS011;2978;42.012;24.880;2023-03-24T04:42:58;9.50;;;4.50;;
5904;SDS011;2978;42.012;24.880;2023-03-24T04:45:28;5.50;;;4.00;;
5904;SDS011;2978;42.012;24.880;2023-03-24T04:47:57;7.70;;;4.10;;
5904;SDS011;2978;42.012;24.880;2023-03-24T04:50:32;4.87;;;3.73;;
5904;SDS011;2978;42.012;24.880;2023-03-24T04:53:01;9.77;;;5.23;;
5904;SDS011;2978;42.012;24.880;2023-03-24T04:55:31;13.63;;;4.10;;
5904;SDS011;2978;42.012;24.880;2023-03-24T04:58:19;7.33;;;4.60;;
5904;SDS011;2978;42.012;24.880;2023-03-24T05:00:46;5.37;;;4.73;;
5904;SDS011;2978;42.012;24.880;2023-03-24T05:03:12;5.43;;;3.87;;
5904;SDS011;2978;42.012;24.880;2023-03-24T05:05:42;10.97;;;4.70;;
5904;SDS011;2978;42.012;24.880;2023-03-24T05:08:09;6.90;;;4.07;;
5904;SDS011;2978;42.012;24.880;2023-03-24T05:10:35;6.67;;;3.30;;
5904;SDS011;2978;42.012;24.880;2023-03-24T05:13:01;17.17;;;5.03;;
5904;SDS011;2978;42.012;24.880;2023-03-24T05:15:28;5.40;;;4.47;;
5904;SDS011;2978;42.012;24.880;2023-03-24T05:17:53;11.13;;;4.63;;
5904;SDS011;2978;42.012;24.880;2023-03-24T05:20:19;7.33;;;3.67;;
5904;SDS011;2978;42.012;24.880;2023-03-24T05:22:44;6.63;;;3.73;;
5904;SDS011;2978;42.012;24.880;2023-03-24T05:25:10;6.07;;;4.10;;
5904;SDS011;2978;42.012;24.880;2023-03-24T05:27:36;4.67;;;3.73;;
5904;SDS011;2978;42.012;24.880;2023-03-24T05:30:03;5.13;;;3.80;;
5904;SDS011;2978;42.012;24.880;2023-03-24T05:32:29;7.47;;;3.70;;
5904;SDS011;2978;42.012;24.880;2023-03-24T05:34:55;5.27;;;4.07;;
5904;SDS011;2978;42.012;24.880;2023-03-24T05:37:20;5.60;;;3.97;;
5904;SDS011;2978;42.012;24.880;2023-03-24T05:39:46;6.77;;;3.87;;
5904;SDS011;2978;42.012;24.880;2023-03-24T05:42:11;7.63;;;4.00;;
5904;SDS011;2978;42.012;24.880;2023-03-24T05:44:37;4.70;;;3.73;;
5904;SDS011;2978;42.012;24.880;2023-03-24T05:47:02;9.50;;;4.33;;
5904;SDS011;2978;42.012;24.880;2023-03-24T05:49:28;8.17;;;4.07;;
5904;SDS011;2978;42.012;24.880;2023-03-24T05:51:54;4.57;;;3.50;;
5904;SDS011;2978;42.012;24.880;2023-03-24T05:54:20;9.40;;;4.97;;
5904;SDS011;2978;42.012;24.880;2023-03-24T05:56:46;16.37;;;8.83;;
5904;SDS011;2978;42.012;24.880;2023-03-24T05:59:13;6.00;;;4.10;;
5904;SDS011;2978;42.012;24.880;2023-03-24T06:01:38;6.03;;;4.00;;
5904;SDS011;2978;42.012;24.880;2023-03-24T06:04:06;8.83;;;6.27;;
5904;SDS011;2978;42.012;24.880;2023-03-24T06:06:32;12.67;;;4.83;;
5904;SDS011;2978;42.012;24.880;2023-03-24T06:08:57;8.30;;;4.00;;
5904;SDS011;2978;42.012;24.880;2023-03-24T06:11:26;9.90;;;3.83;;
5904;SDS011;2978;42.012;24.880;2023-03-24T06:13:52;7.30;;;4.93;;
5904;SDS011;2978;42.012;24.880;2023-03-24T06:16:23;5.30;;;4.30;;
5904;SDS011;2978;42.012;24.880;2023-03-24T06:18:49;5.40;;;3.77;;
5904;SDS011;2978;42.012;24.880;2023-03-24T06:21:17;7.10;;;3.43;;
5904;SDS011;2978;42.012;24.880;2023-03-24T06:23:43;7.20;;;3.60;;
5904;SDS011;2978;42.012;24.880;2023-03-24T06:26:09;5.47;;;3.67;;
5904;SDS011;2978;42.012;24.880;2023-03-24T06:28:36;19.67;;;4.23;;
5904;SDS011;2978;42.012;24.880;2023-03-24T06:31:04;3.67;;;2.97;;
5904;SDS011;2978;42.012;24.880;2023-03-24T06:33:30;3.53;;;2.53;;
5904;SDS011;2978;42.012;24.880;2023-03-24T06:35:55;7.50;;;4.33;;
5904;SDS011;2978;42.012;24.880;2023-03-24T06:38:21;5.73;;;3.63;;
5904;SDS011;2978;42.012;24.880;2023-03-24T06:40:46;8.90;;;4.97;;
5904;SDS011;2978;42.012;24.880;2023-03-24T06:43:12;10.43;;;6.70;;
5904;SDS011;2978;42.012;24.880;2023-03-24T06:45:37;20.53;;;8.73;;
5904;SDS011;2978;42.012;24.880;2023-03-24T06:48:09;19.27;;;7.40;;
5904;SDS011;2978;42.012;24.880;2023-03-24T06:50:35;18.23;;;8.53;;
5904;SDS011;2978;42.012;24.880;2023-03-24T06:53:02;10.20;;;7.70;;
5904;SDS011;2978;42.012;24.880;2023-03-24T06:55:27;19.87;;;10.37;;
5904;SDS011;2978;42.012;24.880;2023-03-24T06:57:52;8.03;;;7.23;;
5904;SDS011;2978;42.012;24.880;2023-03-24T07:00:18;14.30;;;8.67;;
5904;SDS011;2978;42.012;24.880;2023-03-24T07:02:44;10.60;;;8.20;;
5904;SDS011;2978;42.012;24.880;2023-03-24T07:05:09;38.97;;;17.97;;
5904;SDS011;2978;42.012;24.880;2023-03-24T07:07:36;15.20;;;10.27;;
5904;SDS011;2978;42.012;24.880;2023-03-24T07:10:03;11.63;;;8.80;;
5904;SDS011;2978;42.012;24.880;2023-03-24T07:12:29;9.97;;;8.03;;
5904;SDS011;2978;42.012;24.880;2023-03-24T07:14:55;11.47;;;8.20;;
5904;SDS011;2978;42.012;24.880;2023-03-24T07:17:24;12.70;;;8.30;;
5904;SDS011;2978;42.012;24.880;2023-03-24T07:19:49;10.43;;;7.60;;
5904;SDS011;2978;42.012;24.880;2023-03-24T07:22:15;24.57;;;10.90;;
5904;SDS011;2978;42.012;24.880;2023-03-24T07:24:40;24.73;;;13.83;;
5904;SDS011;2978;42.012;24.880;2023-03-24T07:27:06;14.93;;;10.27;;
5904;SDS011;2978;42.012;24.880;2023-03-24T07:29:31;20.23;;;12.00;;
5904;SDS011;2978;42.012;24.880;2023-03-24T07:31:57;18.53;;;10.37;;
5904;SDS011;2978;42.012;24.880;2023-03-24T07:34:26;15.30;;;10.27;;
5904;SDS011;2978;42.012;24.880;2023-03-24T07:36:52;14.00;;;9.80;;
5904;SDS011;2978;42.012;24.880;2023-03-24T07:39:17;12.70;;;9.23;;
5904;SDS011;2978;42.012;24.880;2023-03-24T07:41:43;11.97;;;8.70;;
5904;SDS011;2978;42.012;24.880;2023-03-24T07:44:09;13.90;;;11.20;;
5904;SDS011;2978;42.012;24.880;2023-03-24T07:46:34;14.63;;;10.80;;
5904;SDS011;2978;42.012;24.880;2023-03-24T07:49:00;13.20;;;10.60;;
5904;SDS011;2978;42.012;24.880;2023-03-24T07:51:26;14.40;;;11.47;;
5904;SDS011;2978;42.012;24.880;2023-03-24T07:53:52;16.70;;;12.20;;
5904;SDS011;2978;42.012;24.880;2023-03-24T07:56:18;40.93;;;31.03;;
5904;SDS011;2978;42.012;24.880;2023-03-24T07:58:44;18.83;;;12.87;;
5904;SDS011;2978;42.012;24.880;2023-03-24T08:01:09;17.53;;;12.17;;
5904;SDS011;2978;42.012;24.880;2023-03-24T08:03:37;17.60;;;10.50;;
5904;SDS011;2978;42.012;24.880;2023-03-24T08:06:05;12.87;;;11.13;;
5904;SDS011;2978;42.012;24.880;2023-03-24T08:08:31;13.90;;;10.20;;
5904;SDS011;2978;42.012;24.880;2023-03-24T08:10:58;12.73;;;11.13;;
5904;SDS011;2978;42.012;24.880;2023-03-24T08:13:23;20.60;;;12.13;;
5904;SDS011;2978;42.012;24.880;2023-03-24T08:15:49;16.87;;;10.93;;
5904;SDS011;2978;42.012;24.880;2023-03-24T08:18:17;15.20;;;11.50;;
5904;SDS011;2978;42.012;24.880;2023-03-24T08:20:44;13.20;;;10.70;;
5904;SDS011;2978;42.012;24.880;2023-03-24T08:23:10;19.63;;;10.50;;
5904;SDS011;2978;42.012;24.880;2023-03-24T08:25:36;12.70;;;11.17;;
5904;SDS011;2978;42.012;24.880;2023-03-24T08:28:01;12.70;;;10.87;;
5904;SDS011;2978;42.012;24.880;2023-03-24T08:30:27;14.70;;;11.40;;
5904;SDS011;2978;42.012;24.880;2023-03-24T08:32:53;15.50;;;12.70;;
5904;SDS011;2978;42.012;24.880;2023-03-24T08:35:22;22.10;;;12.53;;
5904;SDS011;2978;42.012;24.880;2023-03-24T08:37:58;36.37;;;23.83;;
5904;SDS011;2978;42.012;24.880;2023-03-24T08:40:25;14.10;;;10.70;;
5904;SDS011;2978;42.012;24.880;2023-03-24T08:42:53;15.17;;;11.40;;
5904;SDS011;2978;42.012;24.880;2023-03-24T08:45:21;15.20;;;11.00;;
5904;SDS011;2978;42.012;24.880;2023-03-24T08:47:48;15.00;;;10.77;;
5904;SDS011;2978;42.012;24.880;2023-03-24T08:50:16;13.10;;;10.90;;
5904;SDS011;2978;42.012;24.880;2023-03-24T08:52:42;18.20;;;11.53;;
5904;SDS011;2978;42.012;24.880;2023-03-24T08:55:08;18.03;;;11.80;;
5904;SDS011;2978;42.012;24.880;2023-03-24T08:57:34;15.00;;;11.70;;
5904;SDS011;2978;42.012;24.880;2023-03-24T09:00:00;13.40;;;11.83;;
5904;SDS011;2978;42.012;24.880;2023-03-24T09:02:32;23.00;;;12.83;;
5904;SDS011;2978;42.012;24.880;2023-03-24T09:04:58;18.03;;;11.70;;
5904;SDS011;2978;42.012;24.880;2023-03-24T09:07:23;18.73;;;10.50;;
5904;SDS011;2978;42.012;24.880;2023-03-24T09:09:49;13.90;;;11.30;;
5904;SDS011;2978;42.012;24.880;2023-03-24T09:12:14;18.23;;;10.70;;
5904;SDS011;2978;42.012;24.880;2023-03-24T09:14:40;19.73;;;12.23;;
5904;SDS011;2978;42.012;24.880;2023-03-24T09:17:05;19.37;;;12.20;;
5904;SDS011;2978;42.012;24.880;2023-03-24T09:19:31;19.07;;;11.60;;
5904;SDS011;2978;42.012;24.880;2023-03-24T09:21:58;13.33;;;10.83;;
5904;SDS011;2978;42.012;24.880;2023-03-24T09:24:23;15.47;;;12.53;;
5904;SDS011;2978;42.012;24.880;2023-03-24T09:26:48;16.63;;;12.00;;
5904;SDS011;2978;42.012;24.880;2023-03-24T09:29:14;12.90;;;11.20;;
5904;SDS011;2978;42.012;24.880;2023-03-24T09:31:40;19.90;;;11.90;;
5904;SDS011;2978;42.012;24.880;2023-03-24T09:34:05;15.60;;;11.70;;
5904;SDS011;2978;42.012;24.880;2023-03-24T09:36:30;17.30;;;12.20;;
5904;SDS011;2978;42.012;24.880;2023-03-24T09:38:56;15.40;;;11.70;;
5904;SDS011;2978;42.012;24.880;2023-03-24T09:41:24;14.80;;;11.47;;
5904;SDS011;2978;42.012;24.880;2023-03-24T09:43:55;13.60;;;11.10;;
5904;SDS011;2978;42.012;24.880;2023-03-24T09:46:35;13.53;;;11.53;;
5904;SDS011;2978;42.012;24.880;2023-03-24T09:49:07;16.03;;;12.47;;
5904;SDS011;2978;42.012;24.880;2023-03-24T09:51:39;16.60;;;11.20;;
5904;SDS011;2978;42.012;24.880;2023-03-24T09:56:59;12.80;;;11.50;;
5904;SDS011;2978;42.012;24.880;2023-03-24T10:01:53;19.90;;;12.20;;
5904;SDS011;2978;42.012;24.880;2023-03-24T10:04:20;11.67;;;10.47;;
5904;SDS011;2978;42.012;24.880;2023-03-24T10:06:48;19.20;;;12.30;;
5904;SDS011;2978;42.012;24.880;2023-03-24T10:09:23;15.33;;;11.30;;
5904;SDS011;2978;42.012;24.880;2023-03-24T10:25:26;14.60;;;10.47;;
5904;SDS011;2978;42.012;24.880;2023-03-24T10:30:50;17.70;;;10.50;;
5904;SDS011;2978;42.012;24.880;2023-03-24T10:33:18;13.83;;;10.13;;
5904;SDS011;2978;42.012;24.880;2023-03-24T10:36:01;9.90;;;7.97;;
5904;SDS011;2978;42.012;24.880;2023-03-24T10:38:30;9.83;;;7.93;;
5904;SDS011;2978;42.012;24.880;2023-03-24T10:40:56;11.80;;;7.70;;
5904;SDS011;2978;42.012;24.880;2023-03-24T10:43:22;8.87;;;7.37;;
5904;SDS011;2978;42.012;24.880;2023-03-24T10:45:53;10.67;;;7.70;;
5904;SDS011;2978;42.012;24.880;2023-03-24T10:48:33;8.83;;;7.30;;
5904;SDS011;2978;42.012;24.880;2023-03-24T10:50:59;9.80;;;6.90;;
5904;SDS011;2978;42.012;24.880;2023-03-24T10:53:25;6.50;;;5.60;;
5904;SDS011;2978;42.012;24.880;2023-03-24T10:55:51;8.17;;;5.67;;
5904;SDS011;2978;42.012;24.880;2023-03-24T10:58:19;9.07;;;7.37;;
5904;SDS011;2978;42.012;24.880;2023-03-24T11:00:53;10.90;;;8.63;;
5904;SDS011;2978;42.012;24.880;2023-03-24T11:03:26;7.90;;;6.93;;
5904;SDS011;2978;42.012;24.880;2023-03-24T11:05:59;7.60;;;6.57;;
5904;SDS011;2978;42.012;24.880;2023-03-24T11:08:31;8.87;;;7.17;;
5904;SDS011;2978;42.012;24.880;2023-03-24T11:11:12;15.20;;;7.80;;
5904;SDS011;2978;42.012;24.880;2023-03-24T11:13:52;8.53;;;6.60;;
5904;SDS011;2978;42.012;24.880;2023-03-24T11:16:20;10.40;;;7.80;;
5904;SDS011;2978;42.012;24.880;2023-03-24T11:19:06;11.07;;;7.53;;
5904;SDS011;2978;42.012;24.880;2023-03-24T11:21:42;9.87;;;7.40;;
5904;SDS011;2978;42.012;24.880;2023-03-24T11:24:09;8.40;;;7.37;;
5904;SDS011;2978;42.012;24.880;2023-03-24T11:26:43;8.40;;;7.50;;
5904;SDS011;2978;42.012;24.880;2023-03-24T11:29:15;8.27;;;7.37;;
5904;SDS011;2978;42.012;24.880;2023-03-24T11:31:47;12.10;;;8.07;;
5904;SDS011;2978;42.012;24.880;2023-03-24T11:34:18;8.87;;;7.00;;
5904;SDS011;2978;42.012;24.880;2023-03-24T11:36:59;7.53;;;6.77;;
5904;SDS011;2978;42.012;24.880;2023-03-24T11:39:28;10.00;;;6.57;;
5904;SDS011;2978;42.012;24.880;2023-03-24T11:44:30;8.77;;;6.57;;
5904;SDS011;2978;42.012;24.880;2023-03-24T11:47:22;9.80;;;7.33;;
5904;SDS011;2978;42.012;24.880;2023-03-24T11:49:59;6.90;;;6.20;;
5904;SDS011;2978;42.012;24.880;2023-03-24T11:52:51;12.07;;;7.43;;
5904;SDS011;2978;42.012;24.880;2023-03-24T11:55:31;8.37;;;5.83;;
5904;SDS011;2978;42.012;24.880;2023-03-24T12:00:41;9.87;;;6.57;;
5904;SDS011;2978;42.012;24.880;2023-03-24T12:03:20;13.13;;;5.73;;
5904;SDS011;2978;42.012;24.880;2023-03-24T12:11:24;7.77;;;5.97;;
5904;SDS011;2978;42.012;24.880;2023-03-24T12:14:12;8.17;;;5.20;;
5904;SDS011;2978;42.012;24.880;2023-03-24T12:16:55;6.00;;;5.40;;
5904;SDS011;2978;42.012;24.880;2023-03-24T12:19:47;11.30;;;6.80;;
5904;SDS011;2978;42.012;24.880;2023-03-24T12:41:42;10.73;;;7.10;;
5904;SDS011;2978;42.012;24.880;2023-03-24T12:57:56;7.60;;;4.90;;
5904;SDS011;2978;42.012;24.880;2023-03-24T13:00:27;6.27;;;4.90;;
5904;SDS011;2978;42.012;24.880;2023-03-24T13:02:57;6.70;;;4.60;;
5904;SDS011;2978;42.012;24.880;2023-03-24T13:05:32;6.93;;;4.40;;
5904;SDS011;2978;42.012;24.880;2023-03-24T13:08:02;4.50;;;4.10;;
5904;SDS011;2978;42.012;24.880;2023-03-24T13:10:35;5.67;;;4.47;;
5904;SDS011;2978;42.012;24.880;2023-03-24T13:13:20;4.40;;;4.00;;
5904;SDS011;2978;42.012;24.880;2023-03-24T13:15:59;5.50;;;4.90;;
5904;SDS011;2978;42.012;24.880;2023-03-24T13:18:32;6.10;;;3.43;;
5904;SDS011;2978;42.012;24.880;2023-03-24T13:59:25;4.83;;;4.00;;
5904;SDS011;2978;42.012;24.880;2023-03-24T14:02:08;8.83;;;4.20;;
5904;SDS011;2978;42.012;24.880;2023-03-24T14:04:44;5.10;;;3.80;;
5904;SDS011;2978;42.012;24.880;2023-03-24T14:09:56;6.87;;;4.30;;
5904;SDS011;2978;42.012;24.880;2023-03-24T14:12:35;5.33;;;4.07;;
5904;SDS011;2978;42.012;24.880;2023-03-24T14:21:05;7.57;;;4.80;;
5904;SDS011;2978;42.012;24.880;2023-03-24T14:23:42;5.10;;;4.20;;
5904;SDS011;2978;42.012;24.880;2023-03-24T14:28:44;3.83;;;3.47;;
5904;SDS011;2978;42.012;24.880;2023-03-24T14:36:19;4.17;;;3.67;;
5904;SDS011;2978;42.012;24.880;2023-03-24T14:39:23;4.10;;;3.57;;
5904;SDS011;2978;42.012;24.880;2023-03-24T14:42:00;5.43;;;4.30;;
5904;SDS011;2978;42.012;24.880;2023-03-24T14:47:10;4.33;;;3.23;;
5904;SDS011;2978;42.012;24.880;2023-03-24T14:49:40;8.77;;;4.30;;
5904;SDS011;2978;42.012;24.880;2023-03-24T14:52:22;6.47;;;4.50;;
5904;SDS011;2978;42.012;24.880;2023-03-24T14:54:57;8.37;;;3.90;;
5904;SDS011;2978;42.012;24.880;2023-03-24T14:57:39;7.70;;;4.03;;
5904;SDS011;2978;42.012;24.880;2023-03-24T15:02:44;4.73;;;3.47;;
5904;SDS011;2978;42.012;24.880;2023-03-24T15:07:41;11.33;;;8.43;;
5904;SDS011;2978;42.012;24.880;2023-03-24T15:10:17;6.43;;;4.10;;
5904;SDS011;2978;42.012;24.880;2023-03-24T15:12:44;5.83;;;4.17;;
5904;SDS011;2978;42.012;24.880;2023-03-24T15:15:17;10.50;;;5.90;;
5904;SDS011;2978;42.012;24.880;2023-03-24T15:17:46;5.60;;;4.97;;
5904;SDS011;2978;42.012;24.880;2023-03-24T15:20:26;7.20;;;6.50;;
5904;SDS011;2978;42.012;24.880;2023-03-24T15:22:55;6.00;;;4.53;;
5904;SDS011;2978;42.012;24.880;2023-03-24T15:25:30;4.87;;;4.00;;
5904;SDS011;2978;42.012;24.880;2023-03-24T15:27:56;4.60;;;3.30;;
5904;SDS011;2978;42.012;24.880;2023-03-24T15:30:21;5.03;;;3.87;;
5904;SDS011;2978;42.012;24.880;2023-03-24T15:32:48;6.33;;;3.60;;
5904;SDS011;2978;42.012;24.880;2023-03-24T15:35:15;9.30;;;3.80;;
5904;SDS011;2978;42.012;24.880;2023-03-24T15:37:55;6.10;;;4.67;;
5904;SDS011;2978;42.012;24.880;2023-03-24T15:42:55;5.30;;;3.43;;
5904;SDS011;2978;42.012;24.880;2023-03-24T15:45:31;5.33;;;4.37;;
5904;SDS011;2978;42.012;24.880;2023-03-24T15:48:18;9.10;;;6.40;;
5904;SDS011;2978;42.012;24.880;2023-03-24T15:50:59;9.03;;;5.03;;
5904;SDS011;2978;42.012;24.880;2023-03-24T15:56:02;5.33;;;3.90;;
5904;SDS011;2978;42.012;24.880;2023-03-24T15:58:31;9.50;;;4.80;;
5904;SDS011;2978;42.012;24.880;2023-03-24T16:01:09;24.43;;;4.40;;
5904;SDS011;2978;42.012;24.880;2023-03-24T16:03:38;10.87;;;4.50;;
5904;SDS011;2978;42.012;24.880;2023-03-24T16:06:11;10.40;;;3.83;;
5904;SDS011;2978;42.012;24.880;2023-03-24T16:08:40;14.70;;;4.47;;
5904;SDS011;2978;42.012;24.880;2023-03-24T16:11:11;10.90;;;3.60;;
5904;SDS011;2978;42.012;24.880;2023-03-24T16:13:52;7.83;;;4.37;;
5904;SDS011;2978;42.012;24.880;2023-03-24T16:16:28;6.90;;;4.40;;
5904;SDS011;2978;42.012;24.880;2023-03-24T16:18:54;11.83;;;7.60;;
5904;SDS011;2978;42.012;24.880;2023-03-24T16:21:25;16.30;;;11.70;;
5904;SDS011;2978;42.012;24.880;2023-03-24T16:23:54;12.03;;;5.83;;
5904;SDS011;2978;42.012;24.880;2023-03-24T16:26:21;13.50;;;7.40;;
5904;SDS011;2978;42.012;24.880;2023-03-24T16:28:49;12.50;;;6.90;;
5904;SDS011;2978;42.012;24.880;2023-03-24T16:33:48;16.17;;;12.07;;
5904;SDS011;2978;42.012;24.880;2023-03-24T16:36:15;18.80;;;14.67;;
5904;SDS011;2978;42.012;24.880;2023-03-24T16:38:43;12.27;;;9.93;;
5904;SDS011;2978;42.012;24.880;2023-03-24T16:41:10;13.90;;;10.87;;
5904;SDS011;2978;42.012;24.880;2023-03-24T16:43:37;19.63;;;12.40;;
5904;SDS011;2978;42.012;24.880;2023-03-24T16:46:04;48.27;;;22.47;;
5904;SDS011;2978;42.012;24.880;2023-03-24T16:48:30;28.07;;;17.83;;
5904;SDS011;2978;42.012;24.880;2023-03-24T16:50:55;36.57;;;22.93;;
5904;SDS011;2978;42.012;24.880;2023-03-24T16:53:22;33.30;;;19.73;;
5904;SDS011;2978;42.012;24.880;2023-03-24T16:55:48;31.80;;;20.87;;
5904;SDS011;2978;42.012;24.880;2023-03-24T16:58:14;33.57;;;18.70;;
5904;SDS011;2978;42.012;24.880;2023-03-24T17:00:40;30.20;;;16.37;;
5904;SDS011;2978;42.012;24.880;2023-03-24T17:03:12;26.00;;;11.33;;
5904;SDS011;2978;42.012;24.880;2023-03-24T17:05:39;20.47;;;9.47;;
5904;SDS011;2978;42.012;24.880;2023-03-24T17:08:13;14.57;;;7.60;;
5904;SDS011;2978;42.012;24.880;2023-03-24T17:10:40;17.50;;;7.10;;
5904;SDS011;2978;42.012;24.880;2023-03-24T17:13:08;13.43;;;6.67;;
5904;SDS011;2978;42.012;24.880;2023-03-24T17:15:40;16.20;;;6.40;;
5904;SDS011;2978;42.012;24.880;2023-03-24T17:18:05;8.53;;;5.30;;
5904;SDS011;2978;42.012;24.880;2023-03-24T17:20:32;15.17;;;4.47;;
5904;SDS011;2978;42.012;24.880;2023-03-24T17:22:59;9.30;;;4.90;;
5904;SDS011;2978;42.012;24.880;2023-03-24T17:25:24;9.10;;;4.87;;
5904;SDS011;2978;42.012;24.880;2023-03-24T17:27:53;9.10;;;4.80;;
5904;SDS011;2978;42.012;24.880;2023-03-24T17:30:24;6.30;;;4.93;;
5904;SDS011;2978;42.012;24.880;2023-03-24T17:32:52;7.00;;;4.63;;
5904;SDS011;2978;42.012;24.880;2023-03-24T17:35:19;7.90;;;4.50;;
5904;SDS011;2978;42.012;24.880;2023-03-24T17:37:46;6.23;;;4.50;;
5904;SDS011;2978;42.012;24.880;2023-03-24T17:40:13;10.70;;;5.00;;
5904;SDS011;2978;42.012;24.880;2023-03-24T17:42:42;7.87;;;5.70;;
5904;SDS011;2978;42.012;24.880;2023-03-24T17:45:09;9.27;;;5.63;;
5904;SDS011;2978;42.012;24.880;2023-03-24T17:47:37;17.97;;;8.73;;
5904;SDS011;2978;42.012;24.880;2023-03-24T17:50:03;17.47;;;10.00;;
5904;SDS011;2978;42.012;24.880;2023-03-24T17:52:43;15.03;;;5.83;;
5904;SDS011;2978;42.012;24.880;2023-03-24T17:55:11;16.57;;;6.30;;
5904;SDS011;2978;42.012;24.880;2023-03-24T17:57:38;8.80;;;5.27;;
5904;SDS011;2978;42.012;24.880;2023-03-24T18:00:04;8.70;;;5.40;;
5904;SDS011;2978;42.012;24.880;2023-03-24T18:02:32;11.97;;;6.90;;
5904;SDS011;2978;42.012;24.880;2023-03-24T18:04:57;8.03;;;5.27;;
5904;SDS011;2978;42.012;24.880;2023-03-24T18:07:23;16.57;;;5.60;;
5904;SDS011;2978;42.012;24.880;2023-03-24T18:09:49;18.37;;;7.40;;
5904;SDS011;2978;42.012;24.880;2023-03-24T18:12:16;10.40;;;5.40;;
5904;SDS011;2978;42.012;24.880;2023-03-24T18:14:42;8.80;;;4.90;;
5904;SDS011;2978;42.012;24.880;2023-03-24T18:17:08;7.90;;;4.30;;